createdAt,value
2023-04-24T17:59:08.469Z,98818.61
2023-04-24T18:01:44.147Z,98825.23
2023-04-24T18:04:16.689Z,98819.09
2023-04-24T18:06:49.987Z,98817.44
2023-04-24T18:09:22.374Z,98817.67
2023-04-24T18:11:57.930Z,98827.42
2023-04-24T18:14:31.557Z,98837.17
2023-04-24T18:17:04.432Z,98826.66
2023-04-24T18:19:38.753Z,98819.80
2023-04-24T18:22:19.808Z,98818.97
2023-04-24T18:24:56.126Z,98818.89
2023-04-24T18:27:34.016Z,98828.70
2023-04-24T18:30:10.060Z,98830.38
2023-04-24T18:32:43.171Z,98828.70
2023-04-24T18:35:19.397Z,98831.28
2023-04-24T18:37:51.134Z,98829.47
2023-04-24T18:40:22.859Z,98827.62
2023-04-24T18:43:04.195Z,98834.53
2023-04-24T18:45:40.411Z,98839.80
2023-04-24T18:48:13.091Z,98826.58
2023-04-24T18:50:46.057Z,98826.52
2023-04-24T18:53:21.507Z,98825.69
2023-04-24T18:55:54.469Z,98844.13
2023-04-24T18:58:26.389Z,98830.13
2023-04-24T19:00:58.094Z,98835.55
2023-04-24T19:03:30.143Z,98829.30
2023-04-24T19:06:10.015Z,98829.36
2023-04-24T19:08:43.353Z,98832.06
2023-04-24T19:11:14.951Z,98827.02
2023-04-24T19:13:48.776Z,98827.20
2023-04-24T19:16:20.507Z,98830.92
2023-04-24T19:18:52.668Z,98826.43
2023-04-24T19:21:39.482Z,98828.22
2023-04-24T19:24:24.070Z,98782.34
2023-04-24T19:26:56.247Z,98829.72
2023-04-24T19:29:29.150Z,98820.81
2023-04-24T19:32:05.014Z,98828.81
2023-04-24T19:34:42.185Z,98832.36
2023-04-24T19:37:17.020Z,98829.77
2023-04-24T19:39:53.774Z,98825.39
2023-04-24T19:42:42.620Z,98829.00
2023-04-24T19:45:03.640Z,98836.98
2023-04-24T19:47:35.415Z,98839.65
2023-04-24T19:50:16.494Z,98834.60
2023-04-24T19:52:48.784Z,98835.67
2023-04-24T19:55:21.344Z,98834.91
2023-04-24T19:57:55.496Z,98830.64
2023-04-24T20:00:30.434Z,98829.80
2023-04-24T20:03:03.154Z,98839.42
2023-04-24T20:05:35.950Z,98836.89
2023-04-24T20:08:07.835Z,98832.51
2023-04-24T20:10:43.644Z,98830.77
2023-04-24T20:13:19.924Z,98825.48
2023-04-24T20:15:53.116Z,98837.80
2023-04-24T20:18:40.149Z,98835.09
2023-04-24T20:27:39.777Z,98840.13
2023-04-24T20:30:13.879Z,98836.05
2023-04-24T20:32:46.621Z,98830.88
2023-04-24T20:35:18.434Z,98831.78
2023-04-24T20:37:51.335Z,98829.97
2023-04-24T20:40:28.254Z,98830.83
2023-04-24T20:43:04.959Z,98837.13
2023-04-24T20:45:43.463Z,98830.20
2023-04-24T20:48:24.032Z,98832.97
2023-04-24T20:51:01.163Z,98827.01
2023-04-24T20:53:44.134Z,98829.70
2023-04-24T20:56:37.251Z,98843.81
2023-04-24T20:59:18.435Z,98838.70
2023-04-24T21:01:53.859Z,98838.70
2023-04-24T21:04:32.634Z,98818.02
2023-04-24T21:07:18.315Z,98843.14
2023-04-24T21:09:51.266Z,98842.51
2023-04-24T21:12:25.621Z,98843.46
2023-04-24T21:15:16.628Z,98843.48
2023-04-24T21:18:05.162Z,98841.79
2023-04-24T21:24:15.407Z,98842.89
2023-04-24T21:27:08.616Z,98839.42
2023-04-24T21:29:58.320Z,98846.53
2023-04-24T21:32:37.624Z,98842.11
2023-04-24T21:35:31.054Z,98852.77
2023-04-24T21:38:05.882Z,98851.98
2023-04-24T21:40:41.269Z,98855.63
2023-04-24T21:43:13.502Z,98849.65
2023-04-24T21:45:46.659Z,98847.12
2023-04-24T21:52:03.190Z,98844.63
2023-04-24T21:55:17.681Z,98841.25
2023-04-24T21:58:31.312Z,98830.91
2023-04-24T22:01:12.233Z,98829.52
2023-04-24T22:03:48.327Z,98828.02
2023-04-24T22:09:42.076Z,98830.44
2023-04-24T22:15:24.417Z,98823.97
2023-04-24T22:18:24.529Z,98825.00
2023-04-24T22:20:56.882Z,98826.02
2023-04-24T22:23:49.369Z,98827.98
2023-04-24T22:26:52.190Z,98824.62
2023-04-24T22:29:34.090Z,98830.84
2023-04-24T22:32:13.322Z,98828.20
2023-04-24T22:34:52.011Z,98820.27
2023-04-24T22:37:34.011Z,98815.03
2023-04-24T22:40:07.661Z,98822.13
2023-04-24T22:42:41.111Z,98811.63
2023-04-24T22:45:14.998Z,98822.29
2023-04-24T22:47:46.971Z,98814.56
2023-04-24T22:50:20.528Z,98818.25
2023-04-24T22:52:52.300Z,98824.48
2023-04-24T22:55:24.170Z,98811.36
2023-04-24T22:57:57.602Z,98821.08
2023-04-24T23:00:29.800Z,98814.07
2023-04-24T23:03:01.918Z,98773.36
2023-04-24T23:05:33.780Z,98807.91
2023-04-24T23:08:05.386Z,98814.92
2023-04-24T23:10:37.424Z,98816.66
2023-04-24T23:13:14.843Z,98815.85
2023-04-24T23:15:47.395Z,98808.88
2023-04-24T23:18:19.396Z,98812.53
2023-04-24T23:20:51.483Z,98806.53
2023-04-24T23:23:23.168Z,98809.27
2023-04-24T23:25:55.013Z,98813.84
2023-04-24T23:28:27.214Z,98811.36
2023-04-24T23:30:58.912Z,98806.20
2023-04-24T23:33:30.649Z,98806.31
2023-04-24T23:36:02.292Z,98799.38
2023-04-24T23:38:43.135Z,98802.94
2023-04-24T23:41:07.675Z,98798.64
2023-04-24T23:43:39.281Z,98799.63
2023-04-24T23:46:10.916Z,98799.73
2023-04-24T23:48:42.539Z,98800.66
2023-04-24T23:51:14.200Z,98798.06
2023-04-24T23:53:46.871Z,98798.13
2023-04-24T23:56:18.731Z,98782.56
2023-04-24T23:58:50.605Z,98800.04
